sensor_id;sensor_type;location;lat;lon;timestamp;P1;durP1;ratioP1;P2;durP2;ratioP2
55148;SDS011;49539;48.160;11.530;2024-02-23T00:01:44;0.30;;;0.30;;
55148;SDS011;49539;48.160;11.530;2024-02-23T00:04:14;0.22;;;0.22;;
55148;SDS011;49539;48.160;11.530;2024-02-23T00:06:47;0.57;;;0.28;;
55148;SDS011;49539;48.160;11.530;2024-02-23T00:09:19;0.30;;;0.30;;
55148;SDS011;49539;48.160;11.530;2024-02-23T00:11:46;0.52;;;0.25;;
55148;SDS011;49539;48.160;11.530;2024-02-23T00:14:15;0.30;;;0.30;;
55148;SDS011;49539;48.160;11.530;2024-02-23T00:16:48;0.98;;;0.30;;
55148;SDS011;49539;48.160;11.530;2024-02-23T00:19:17;0.22;;;0.22;;
55148;SDS011;49539;48.160;11.530;2024-02-23T00:21:46;0.38;;;0.30;;
55148;SDS011;49539;48.160;11.530;2024-02-23T00:24:15;0.20;;;0.20;;
55148;SDS011;49539;48.160;11.530;2024-02-23T00:26:43;0.38;;;0.30;;
55148;SDS011;49539;48.160;11.530;2024-02-23T00:29:15;0.20;;;0.20;;
55148;SDS011;49539;48.160;11.530;2024-02-23T00:31:45;0.30;;;0.30;;
55148;SDS011;49539;48.160;11.530;2024-02-23T00:34:19;0.52;;;0.30;;
55148;SDS011;49539;48.160;11.530;2024-02-23T00:36:49;1.30;;;0.20;;
55148;SDS011;49539;48.160;11.530;2024-02-23T00:39:16;0.22;;;0.22;;
55148;SDS011;49539;48.160;11.530;2024-02-23T00:41:43;0.30;;;0.30;;
55148;SDS011;49539;48.160;11.530;2024-02-23T00:44:15;0.40;;;0.20;;
55148;SDS011;49539;48.160;11.530;2024-02-23T00:46:41;0.20;;;0.20;;
55148;SDS011;49539;48.160;11.530;2024-02-23T00:49:08;0.22;;;0.22;;
55148;SDS011;49539;48.160;11.530;2024-02-23T00:51:43;0.43;;;0.30;;
55148;SDS011;49539;48.160;11.530;2024-02-23T00:54:17;0.55;;;0.25;;
55148;SDS011;49539;48.160;11.530;2024-02-23T00:56:42;0.25;;;0.25;;
55148;SDS011;49539;48.160;11.530;2024-02-23T00:59:07;0.20;;;0.20;;
55148;SDS011;49539;48.160;11.530;2024-02-23T01:01:33;0.30;;;0.30;;
55148;SDS011;49539;48.160;11.530;2024-02-23T01:03:58;0.80;;;0.28;;
55148;SDS011;49539;48.160;11.530;2024-02-23T01:06:23;0.65;;;0.30;;
55148;SDS011;49539;48.160;11.530;2024-02-23T01:08:50;0.68;;;0.30;;
55148;SDS011;49539;48.160;11.530;2024-02-23T01:11:15;0.73;;;0.30;;
55148;SDS011;49539;48.160;11.530;2024-02-23T01:13:41;0.28;;;0.28;;
55148;SDS011;49539;48.160;11.530;2024-02-23T01:16:06;0.30;;;0.28;;
55148;SDS011;49539;48.160;11.530;2024-02-23T01:18:31;0.50;;;0.30;;
55148;SDS011;49539;48.160;11.530;2024-02-23T01:20:56;1.80;;;0.30;;
55148;SDS011;49539;48.160;11.530;2024-02-23T01:23:22;0.20;;;0.20;;
55148;SDS011;49539;48.160;11.530;2024-02-23T01:25:48;0.63;;;0.47;;
55148;SDS011;49539;48.160;11.530;2024-02-23T01:28:13;0.40;;;0.30;;
55148;SDS011;49539;48.160;11.530;2024-02-23T01:30:38;0.70;;;0.40;;
55148;SDS011;49539;48.160;11.530;2024-02-23T01:33:04;0.30;;;0.30;;
55148;SDS011;49539;48.160;11.530;2024-02-23T01:35:29;0.20;;;0.20;;
55148;SDS011;49539;48.160;11.530;2024-02-23T01:37:55;0.32;;;0.28;;
55148;SDS011;49539;48.160;11.530;2024-02-23T01:40:20;0.85;;;0.30;;
55148;SDS011;49539;48.160;11.530;2024-02-23T01:42:45;2.20;;;0.30;;
55148;SDS011;49539;48.160;11.530;2024-02-23T01:45:11;0.20;;;0.20;;
55148;SDS011;49539;48.160;11.530;2024-02-23T01:47:37;0.30;;;0.20;;
55148;SDS011;49539;48.160;11.530;2024-02-23T01:50:07;0.50;;;0.30;;
55148;SDS011;49539;48.160;11.530;2024-02-23T01:52:34;0.20;;;0.20;;
55148;SDS011;49539;48.160;11.530;2024-02-23T01:54:59;0.20;;;0.20;;
55148;SDS011;49539;48.160;11.530;2024-02-23T01:57:26;0.20;;;0.20;;
55148;SDS011;49539;48.160;11.530;2024-02-23T01:59:51;0.20;;;0.20;;
55148;SDS011;49539;48.160;11.530;2024-02-23T02:02:16;0.22;;;0.20;;
55148;SDS011;49539;48.160;11.530;2024-02-23T02:04:42;0.20;;;0.20;;
55148;SDS011;49539;48.160;11.530;2024-02-23T02:07:08;0.20;;;0.20;;
55148;SDS011;49539;48.160;11.530;2024-02-23T02:09:33;0.20;;;0.20;;
55148;SDS011;49539;48.160;11.530;2024-02-23T02:11:58;0.30;;;0.30;;
55148;SDS011;49539;48.160;11.530;2024-02-23T02:14:23;0.30;;;0.20;;
55148;SDS011;49539;48.160;11.530;2024-02-23T02:16:49;0.25;;;0.20;;
55148;SDS011;49539;48.160;11.530;2024-02-23T02:19:14;0.20;;;0.20;;
55148;SDS011;49539;48.160;11.530;2024-02-23T02:21:40;0.20;;;0.20;;
55148;SDS011;49539;48.160;11.530;2024-02-23T02:24:06;0.40;;;0.30;;
55148;SDS011;49539;48.160;11.530;2024-02-23T02:26:31;0.20;;;0.20;;
55148;SDS011;49539;48.160;11.530;2024-02-23T02:28:57;0.25;;;0.20;;
55148;SDS011;49539;48.160;11.530;2024-02-23T02:31:22;0.20;;;0.20;;
55148;SDS011;49539;48.160;11.530;2024-02-23T02:33:48;0.20;;;0.20;;
55148;SDS011;49539;48.160;11.530;2024-02-23T02:36:13;0.20;;;0.20;;
55148;SDS011;49539;48.160;11.530;2024-02-23T02:38:39;0.20;;;0.20;;
55148;SDS011;49539;48.160;11.530;2024-02-23T02:41:05;0.38;;;0.30;;
55148;SDS011;49539;48.160;11.530;2024-02-23T02:43:31;0.20;;;0.20;;
55148;SDS011;49539;48.160;11.530;2024-02-23T02:45:56;0.20;;;0.20;;
55148;SDS011;49539;48.160;11.530;2024-02-23T02:48:22;0.30;;;0.22;;
55148;SDS011;49539;48.160;11.530;2024-02-23T02:50:47;0.30;;;0.30;;
55148;SDS011;49539;48.160;11.530;2024-02-23T02:53:14;0.38;;;0.30;;
55148;SDS011;49539;48.160;11.530;2024-02-23T02:55:41;0.32;;;0.28;;
55148;SDS011;49539;48.160;11.530;2024-02-23T02:58:06;1.15;;;0.30;;
55148;SDS011;49539;48.160;11.530;2024-02-23T03:00:31;0.73;;;0.30;;
55148;SDS011;49539;48.160;11.530;2024-02-23T03:02:57;0.65;;;0.28;;
55148;SDS011;49539;48.160;11.530;2024-02-23T03:05:22;0.30;;;0.30;;
55148;SDS011;49539;48.160;11.530;2024-02-23T03:07:48;0.40;;;0.20;;
55148;SDS011;49539;48.160;11.530;2024-02-23T03:10:13;0.20;;;0.20;;
55148;SDS011;49539;48.160;11.530;2024-02-23T03:12:38;0.50;;;0.30;;
55148;SDS011;49539;48.160;11.530;2024-02-23T03:15:04;0.20;;;0.20;;
55148;SDS011;49539;48.160;11.530;2024-02-23T03:17:30;0.22;;;0.22;;
55148;SDS011;49539;48.160;11.530;2024-02-23T03:19:55;0.20;;;0.20;;
55148;SDS011;49539;48.160;11.530;2024-02-23T03:22:21;0.43;;;0.32;;
55148;SDS011;49539;48.160;11.530;2024-02-23T03:24:46;0.30;;;0.30;;
55148;SDS011;49539;48.160;11.530;2024-02-23T03:27:11;0.20;;;0.20;;
55148;SDS011;49539;48.160;11.530;2024-02-23T03:29:38;0.68;;;0.30;;
55148;SDS011;49539;48.160;11.530;2024-02-23T03:32:03;0.32;;;0.30;;
55148;SDS011;49539;48.160;11.530;2024-02-23T03:34:29;0.55;;;0.38;;
55148;SDS011;49539;48.160;11.530;2024-02-23T03:36:54;0.22;;;0.22;;
55148;SDS011;49539;48.160;11.530;2024-02-23T03:39:20;0.32;;;0.30;;
55148;SDS011;49539;48.160;11.530;2024-02-23T03:41:45;0.32;;;0.32;;
55148;SDS011;49539;48.160;11.530;2024-02-23T03:44:10;0.45;;;0.30;;
55148;SDS011;49539;48.160;11.530;2024-02-23T03:46:39;0.40;;;0.30;;
55148;SDS011;49539;48.160;11.530;2024-02-23T03:49:05;0.88;;;0.30;;
55148;SDS011;49539;48.160;11.530;2024-02-23T03:51:31;1.20;;;0.40;;
55148;SDS011;49539;48.160;11.530;2024-02-23T03:53:59;0.30;;;0.30;;
55148;SDS011;49539;48.160;11.530;2024-02-23T03:56:24;0.28;;;0.28;;
55148;SDS011;49539;48.160;11.530;2024-02-23T03:58:49;0.30;;;0.30;;
55148;SDS011;49539;48.160;11.530;2024-02-23T04:01:14;0.32;;;0.30;;
55148;SDS011;49539;48.160;11.530;2024-02-23T04:03:40;0.35;;;0.32;;
55148;SDS011;49539;48.160;11.530;2024-02-23T04:06:07;1.15;;;0.40;;
55148;SDS011;49539;48.160;11.530;2024-02-23T04:08:33;1.63;;;0.30;;
55148;SDS011;49539;48.160;11.530;2024-02-23T04:10:58;0.30;;;0.30;;
55148;SDS011;49539;48.160;11.530;2024-02-23T04:13:23;0.50;;;0.30;;
55148;SDS011;49539;48.160;11.530;2024-02-23T04:15:49;0.77;;;0.35;;
55148;SDS011;49539;48.160;11.530;2024-02-23T04:18:14;0.20;;;0.20;;
55148;SDS011;49539;48.160;11.530;2024-02-23T04:20:40;0.60;;;0.30;;
55148;SDS011;49539;48.160;11.530;2024-02-23T04:23:07;0.30;;;0.30;;
55148;SDS011;49539;48.160;11.530;2024-02-23T04:25:32;1.92;;;0.45;;
55148;SDS011;49539;48.160;11.530;2024-02-23T04:27:58;0.90;;;0.45;;
55148;SDS011;49539;48.160;11.530;2024-02-23T04:30:23;0.75;;;0.43;;
55148;SDS011;49539;48.160;11.530;2024-02-23T04:32:48;0.63;;;0.30;;
55148;SDS011;49539;48.160;11.530;2024-02-23T04:35:14;0.25;;;0.25;;
55148;SDS011;49539;48.160;11.530;2024-02-23T04:37:42;0.30;;;0.30;;
55148;SDS011;49539;48.160;11.530;2024-02-23T04:40:08;0.60;;;0.40;;
55148;SDS011;49539;48.160;11.530;2024-02-23T04:42:34;0.40;;;0.30;;
55148;SDS011;49539;48.160;11.530;2024-02-23T04:44:59;0.80;;;0.45;;
55148;SDS011;49539;48.160;11.530;2024-02-23T04:47:25;0.30;;;0.30;;
55148;SDS011;49539;48.160;11.530;2024-02-23T04:49:50;0.73;;;0.38;;
55148;SDS011;49539;48.160;11.530;2024-02-23T04:52:15;0.30;;;0.30;;
55148;SDS011;49539;48.160;11.530;2024-02-23T04:54:41;0.20;;;0.20;;
55148;SDS011;49539;48.160;11.530;2024-02-23T04:57:06;0.20;;;0.20;;
55148;SDS011;49539;48.160;11.530;2024-02-23T04:59:31;0.70;;;0.20;;
55148;SDS011;49539;48.160;11.530;2024-02-23T05:01:57;0.30;;;0.30;;
55148;SDS011;49539;48.160;11.530;2024-02-23T05:04:23;0.52;;;0.30;;
55148;SDS011;49539;48.160;11.530;2024-02-23T05:06:48;0.38;;;0.30;;
55148;SDS011;49539;48.160;11.530;2024-02-23T05:09:13;0.70;;;0.30;;
55148;SDS011;49539;48.160;11.530;2024-02-23T05:11:39;0.40;;;0.38;;
55148;SDS011;49539;48.160;11.530;2024-02-23T05:14:04;0.70;;;0.30;;
55148;SDS011;49539;48.160;11.530;2024-02-23T05:16:29;0.30;;;0.30;;
55148;SDS011;49539;48.160;11.530;2024-02-23T05:18:55;0.70;;;0.40;;
55148;SDS011;49539;48.160;11.530;2024-02-23T05:21:20;0.80;;;0.30;;
55148;SDS011;49539;48.160;11.530;2024-02-23T05:23:45;2.20;;;0.40;;
55148;SDS011;49539;48.160;11.530;2024-02-23T05:26:11;0.40;;;0.30;;
55148;SDS011;49539;48.160;11.530;2024-02-23T05:28:37;0.30;;;0.30;;
55148;SDS011;49539;48.160;11.530;2024-02-23T05:31:03;0.47;;;0.30;;
55148;SDS011;49539;48.160;11.530;2024-02-23T05:33:31;0.40;;;0.40;;
55148;SDS011;49539;48.160;11.530;2024-02-23T05:35:56;0.30;;;0.30;;
55148;SDS011;49539;48.160;11.530;2024-02-23T05:38:22;0.28;;;0.25;;
55148;SDS011;49539;48.160;11.530;2024-02-23T05:40:47;0.45;;;0.38;;
55148;SDS011;49539;48.160;11.530;2024-02-23T05:43:13;1.10;;;0.50;;
55148;SDS011;49539;48.160;11.530;2024-02-23T05:45:39;0.38;;;0.30;;
55148;SDS011;49539;48.160;11.530;2024-02-23T05:48:05;1.45;;;0.35;;
55148;SDS011;49539;48.160;11.530;2024-02-23T05:50:31;1.65;;;0.63;;
55148;SDS011;49539;48.160;11.530;2024-02-23T05:52:58;0.30;;;0.30;;
55148;SDS011;49539;48.160;11.530;2024-02-23T05:55:23;0.30;;;0.30;;
55148;SDS011;49539;48.160;11.530;2024-02-23T05:57:49;2.38;;;0.30;;
55148;SDS011;49539;48.160;11.530;2024-02-23T06:00:15;0.77;;;0.38;;
55148;SDS011;49539;48.160;11.530;2024-02-23T06:02:44;0.82;;;0.40;;
55148;SDS011;49539;48.160;11.530;2024-02-23T06:05:09;1.00;;;0.55;;
55148;SDS011;49539;48.160;11.530;2024-02-23T06:07:34;0.60;;;0.43;;
55148;SDS011;49539;48.160;11.530;2024-02-23T06:10:01;0.63;;;0.40;;
55148;SDS011;49539;48.160;11.530;2024-02-23T06:12:26;1.10;;;0.47;;
55148;SDS011;49539;48.160;11.530;2024-02-23T06:14:52;0.32;;;0.30;;
55148;SDS011;49539;48.160;11.530;2024-02-23T06:17:17;7.78;;;0.80;;
55148;SDS011;49539;48.160;11.530;2024-02-23T06:19:43;1.13;;;0.60;;
55148;SDS011;49539;48.160;11.530;2024-02-23T06:22:08;0.30;;;0.30;;
55148;SDS011;49539;48.160;11.530;2024-02-23T06:24:35;2.63;;;0.50;;
55148;SDS011;49539;48.160;11.530;2024-02-23T06:27:01;0.40;;;0.40;;
55148;SDS011;49539;48.160;11.530;2024-02-23T06:29:28;0.63;;;0.40;;
55148;SDS011;49539;48.160;11.530;2024-02-23T06:31:53;1.17;;;0.57;;
55148;SDS011;49539;48.160;11.530;2024-02-23T06:34:19;0.85;;;0.47;;
55148;SDS011;49539;48.160;11.530;2024-02-23T06:36:44;0.30;;;0.30;;
55148;SDS011;49539;48.160;11.530;2024-02-23T06:39:09;0.50;;;0.50;;
55148;SDS011;49539;48.160;11.530;2024-02-23T06:41:37;0.77;;;0.50;;
55148;SDS011;49539;48.160;11.530;2024-02-23T06:44:04;1.40;;;0.50;;
55148;SDS011;49539;48.160;11.530;2024-02-23T06:46:29;0.55;;;0.40;;
55148;SDS011;49539;48.160;11.530;2024-02-23T06:48:54;0.77;;;0.40;;
55148;SDS011;49539;48.160;11.530;2024-02-23T06:51:21;0.30;;;0.30;;
55148;SDS011;49539;48.160;11.530;2024-02-23T06:53:46;3.10;;;0.35;;
55148;SDS011;49539;48.160;11.530;2024-02-23T06:56:12;1.08;;;0.40;;
55148;SDS011;49539;48.160;11.530;2024-02-23T06:58:37;4.03;;;0.50;;
55148;SDS011;49539;48.160;11.530;2024-02-23T07:01:04;0.40;;;0.40;;
55148;SDS011;49539;48.160;11.530;2024-02-23T07:03:30;2.55;;;0.60;;
55148;SDS011;49539;48.160;11.530;2024-02-23T07:05:56;0.77;;;0.40;;
55148;SDS011;49539;48.160;11.530;2024-02-23T07:08:22;0.60;;;0.30;;
55148;SDS011;49539;48.160;11.530;2024-02-23T07:10:47;0.45;;;0.45;;
55148;SDS011;49539;48.160;11.530;2024-02-23T07:13:21;0.82;;;0.50;;
55148;SDS011;49539;48.160;11.530;2024-02-23T07:15:47;1.15;;;0.60;;
55148;SDS011;49539;48.160;11.530;2024-02-23T07:18:12;0.85;;;0.63;;
55148;SDS011;49539;48.160;11.530;2024-02-23T07:20:38;2.80;;;0.70;;
55148;SDS011;49539;48.160;11.530;2024-02-23T07:23:04;0.50;;;0.50;;
55148;SDS011;49539;48.160;11.530;2024-02-23T07:25:29;1.10;;;0.60;;
55148;SDS011;49539;48.160;11.530;2024-02-23T07:27:55;0.75;;;0.47;;
55148;SDS011;49539;48.160;11.530;2024-02-23T07:30:20;0.75;;;0.47;;
55148;SDS011;49539;48.160;11.530;2024-02-23T07:32:47;1.15;;;0.60;;
55148;SDS011;49539;48.160;11.530;2024-02-23T07:35:22;0.40;;;0.40;;
55148;SDS011;49539;48.160;11.530;2024-02-23T07:37:48;1.05;;;0.40;;
55148;SDS011;49539;48.160;11.530;2024-02-23T07:40:20;0.88;;;0.50;;
55148;SDS011;49539;48.160;11.530;2024-02-23T07:42:50;0.50;;;0.50;;
55148;SDS011;49539;48.160;11.530;2024-02-23T07:45:22;1.17;;;0.50;;
55148;SDS011;49539;48.160;11.530;2024-02-23T07:47:48;0.75;;;0.47;;
55148;SDS011;49539;48.160;11.530;2024-02-23T07:50:13;1.45;;;0.68;;
55148;SDS011;49539;48.160;11.530;2024-02-23T07:52:38;0.82;;;0.52;;
55148;SDS011;49539;48.160;11.530;2024-02-23T07:55:04;0.73;;;0.60;;
55148;SDS011;49539;48.160;11.530;2024-02-23T07:57:30;1.58;;;0.70;;
55148;SDS011;49539;48.160;11.530;2024-02-23T07:59:56;2.92;;;0.70;;
55148;SDS011;49539;48.160;11.530;2024-02-23T08:02:21;0.82;;;0.52;;
55148;SDS011;49539;48.160;11.530;2024-02-23T08:04:48;1.35;;;0.63;;
55148;SDS011;49539;48.160;11.530;2024-02-23T08:07:24;1.55;;;0.63;;
55148;SDS011;49539;48.160;11.530;2024-02-23T08:09:55;1.92;;;0.55;;
55148;SDS011;49539;48.160;11.530;2024-02-23T08:12:20;0.90;;;0.60;;
55148;SDS011;49539;48.160;11.530;2024-02-23T08:14:54;2.03;;;0.82;;
55148;SDS011;49539;48.160;11.530;2024-02-23T08:17:21;2.53;;;0.43;;
55148;SDS011;49539;48.160;11.530;2024-02-23T08:19:48;0.63;;;0.47;;
55148;SDS011;49539;48.160;11.530;2024-02-23T08:22:19;1.40;;;0.60;;
55148;SDS011;49539;48.160;11.530;2024-02-23T08:24:47;0.70;;;0.50;;
55148;SDS011;49539;48.160;11.530;2024-02-23T08:27:22;0.40;;;0.40;;
55148;SDS011;49539;48.160;11.530;2024-02-23T08:29:53;1.10;;;0.55;;
55148;SDS011;49539;48.160;11.530;2024-02-23T08:32:23;1.42;;;0.40;;
55148;SDS011;49539;48.160;11.530;2024-02-23T08:34:49;1.20;;;0.38;;
55148;SDS011;49539;48.160;11.530;2024-02-23T08:37:24;3.00;;;0.60;;
55148;SDS011;49539;48.160;11.530;2024-02-23T08:39:51;0.68;;;0.50;;
55148;SDS011;49539;48.160;11.530;2024-02-23T08:42:23;8.45;;;1.48;;
55148;SDS011;49539;48.160;11.530;2024-02-23T08:44:48;3.03;;;0.65;;
55148;SDS011;49539;48.160;11.530;2024-02-23T08:47:16;4.85;;;0.65;;
55148;SDS011;49539;48.160;11.530;2024-02-23T08:49:43;2.70;;;0.80;;
55148;SDS011;49539;48.160;11.530;2024-02-23T08:52:16;1.67;;;0.63;;
55148;SDS011;49539;48.160;11.530;2024-02-23T08:54:56;2.92;;;0.70;;
55148;SDS011;49539;48.160;11.530;2024-02-23T08:57:22;1.70;;;0.40;;
55148;SDS011;49539;48.160;11.530;2024-02-23T08:59:51;5.25;;;0.90;;
55148;SDS011;49539;48.160;11.530;2024-02-23T09:02:23;2.42;;;0.88;;
55148;SDS011;49539;48.160;11.530;2024-02-23T09:04:49;2.25;;;0.70;;
55148;SDS011;49539;48.160;11.530;2024-02-23T09:07:14;1.48;;;0.55;;
55148;SDS011;49539;48.160;11.530;2024-02-23T09:09:39;1.25;;;0.60;;
55148;SDS011;49539;48.160;11.530;2024-02-23T09:12:05;2.65;;;0.85;;
55148;SDS011;49539;48.160;11.530;2024-02-23T09:14:32;4.63;;;0.80;;
55148;SDS011;49539;48.160;11.530;2024-02-23T09:16:58;1.95;;;0.55;;
55148;SDS011;49539;48.160;11.530;2024-02-23T09:19:24;1.85;;;0.75;;
55148;SDS011;49539;48.160;11.530;2024-02-23T09:21:55;1.92;;;0.60;;
55148;SDS011;49539;48.160;11.530;2024-02-23T09:24:20;6.93;;;0.93;;
55148;SDS011;49539;48.160;11.530;2024-02-23T09:26:48;1.75;;;0.57;;
55148;SDS011;49539;48.160;11.530;2024-02-23T09:29:24;2.33;;;0.60;;
55148;SDS011;49539;48.160;11.530;2024-02-23T09:31:51;3.20;;;0.90;;
55148;SDS011;49539;48.160;11.530;2024-02-23T09:34:20;2.03;;;0.60;;
55148;SDS011;49539;48.160;11.530;2024-02-23T09:36:50;1.67;;;0.68;;
55148;SDS011;49539;48.160;11.530;2024-02-23T09:39:25;1.83;;;0.77;;
55148;SDS011;49539;48.160;11.530;2024-02-23T09:41:56;1.17;;;0.52;;
55148;SDS011;49539;48.160;11.530;2024-02-23T09:44:26;1.02;;;0.60;;
55148;SDS011;49539;48.160;11.530;2024-02-23T09:46:59;1.50;;;0.60;;
55148;SDS011;49539;48.160;11.530;2024-02-23T09:49:26;2.40;;;0.77;;
55148;SDS011;49539;48.160;11.530;2024-02-23T09:52:02;2.25;;;0.85;;
55148;SDS011;49539;48.160;11.530;2024-02-23T09:54:28;1.60;;;0.60;;
55148;SDS011;49539;48.160;11.530;2024-02-23T09:57:02;0.40;;;0.40;;
55148;SDS011;49539;48.160;11.530;2024-02-23T09:59:28;1.55;;;0.60;;
55148;SDS011;49539;48.160;11.530;2024-02-23T10:01:58;2.33;;;0.75;;
55148;SDS011;49539;48.160;11.530;2024-02-23T10:04:25;0.40;;;0.40;;
55148;SDS011;49539;48.160;11.530;2024-02-23T10:06:53;1.85;;;0.70;;
55148;SDS011;49539;48.160;11.530;2024-02-23T10:09:21;0.68;;;0.43;;
55148;SDS011;49539;48.160;11.530;2024-02-23T10:11:51;2.17;;;0.40;;
55148;SDS011;49539;48.160;11.530;2024-02-23T10:14:17;2.45;;;1.00;;
55148;SDS011;49539;48.160;11.530;2024-02-23T10:16:42;1.50;;;0.40;;
55148;SDS011;49539;48.160;11.530;2024-02-23T10:19:07;0.82;;;0.45;;
55148;SDS011;49539;48.160;11.530;2024-02-23T10:21:33;3.35;;;0.63;;
55148;SDS011;49539;48.160;11.530;2024-02-23T10:23:58;1.38;;;0.65;;
55148;SDS011;49539;48.160;11.530;2024-02-23T10:26:24;1.58;;;0.70;;
55148;SDS011;49539;48.160;11.530;2024-02-23T10:28:51;0.95;;;0.38;;
55148;SDS011;49539;48.160;11.530;2024-02-23T10:31:16;3.38;;;0.63;;
55148;SDS011;49539;48.160;11.530;2024-02-23T10:33:42;1.73;;;0.60;;
55148;SDS011;49539;48.160;11.530;2024-02-23T10:36:09;1.30;;;0.55;;
55148;SDS011;49539;48.160;11.530;2024-02-23T10:38:35;1.38;;;0.40;;
55148;SDS011;49539;48.160;11.530;2024-02-23T10:41:02;0.60;;;0.38;;
55148;SDS011;49539;48.160;11.530;2024-02-23T10:43:32;0.55;;;0.30;;
55148;SDS011;49539;48.160;11.530;2024-02-23T10:45:59;2.10;;;0.40;;
55148;SDS011;49539;48.160;11.530;2024-02-23T10:48:27;3.75;;;0.50;;
55148;SDS011;49539;48.160;11.530;2024-02-23T10:50:53;2.42;;;0.50;;
55148;SDS011;49539;48.160;11.530;2024-02-23T10:53:18;2.95;;;0.50;;
55148;SDS011;49539;48.160;11.530;2024-02-23T10:55:44;2.22;;;0.95;;
55148;SDS011;49539;48.160;11.530;2024-02-23T10:58:10;1.80;;;0.47;;
55148;SDS011;49539;48.160;11.530;2024-02-23T11:00:38;1.13;;;0.35;;
55148;SDS011;49539;48.160;11.530;2024-02-23T11:03:03;0.80;;;0.40;;
55148;SDS011;49539;48.160;11.530;2024-02-23T11:05:29;1.20;;;0.60;;
55148;SDS011;49539;48.160;11.530;2024-02-23T11:07:56;0.65;;;0.43;;
55148;SDS011;49539;48.160;11.530;2024-02-23T11:10:22;1.58;;;0.63;;
55148;SDS011;49539;48.160;11.530;2024-02-23T11:12:57;2.50;;;0.70;;
55148;SDS011;49539;48.160;11.530;2024-02-23T11:15:27;1.38;;;0.70;;
55148;SDS011;49539;48.160;11.530;2024-02-23T11:18:00;1.10;;;0.45;;
55148;SDS011;49539;48.160;11.530;2024-02-23T11:20:33;1.38;;;0.40;;
55148;SDS011;49539;48.160;11.530;2024-02-23T11:22:59;1.50;;;0.70;;
55148;SDS011;49539;48.160;11.530;2024-02-23T11:25:26;4.75;;;0.80;;
55148;SDS011;49539;48.160;11.530;2024-02-23T11:27:53;1.23;;;0.60;;
55148;SDS011;49539;48.160;11.530;2024-02-23T11:30:23;1.60;;;0.45;;
55148;SDS011;49539;48.160;11.530;2024-02-23T11:32:58;0.60;;;0.40;;
55148;SDS011;49539;48.160;11.530;2024-02-23T11:35:27;1.57;;;0.57;;
55148;SDS011;49539;48.160;11.530;2024-02-23T11:37:56;1.20;;;0.50;;
55148;SDS011;49539;48.160;11.530;2024-02-23T11:40:26;1.70;;;0.70;;
55148;SDS011;49539;48.160;11.530;2024-02-23T11:42:56;0.35;;;0.30;;
55148;SDS011;49539;48.160;11.530;2024-02-23T11:45:22;1.33;;;0.30;;
55148;SDS011;49539;48.160;11.530;2024-02-23T11:47:48;5.03;;;0.73;;
55148;SDS011;49539;48.160;11.530;2024-02-23T11:50:13;3.92;;;0.70;;
55148;SDS011;49539;48.160;11.530;2024-02-23T11:52:40;2.05;;;0.77;;
55148;SDS011;49539;48.160;11.530;2024-02-23T11:55:06;1.15;;;0.50;;
55148;SDS011;49539;48.160;11.530;2024-02-23T11:57:33;1.48;;;0.50;;
55148;SDS011;49539;48.160;11.530;2024-02-23T12:00:00;2.38;;;0.90;;
55148;SDS011;49539;48.160;11.530;2024-02-23T12:02:26;5.53;;;0.77;;
55148;SDS011;49539;48.160;11.530;2024-02-23T12:04:52;1.65;;;0.70;;
55148;SDS011;49539;48.160;11.530;2024-02-23T12:07:17;2.70;;;0.65;;
55148;SDS011;49539;48.160;11.530;2024-02-23T12:09:43;2.25;;;0.55;;
55148;SDS011;49539;48.160;11.530;2024-02-23T12:12:10;2.60;;;0.60;;
55148;SDS011;49539;48.160;11.530;2024-02-23T12:14:36;2.55;;;0.52;;
55148;SDS011;49539;48.160;11.530;2024-02-23T12:17:02;7.20;;;0.80;;
55148;SDS011;49539;48.160;11.530;2024-02-23T12:19:29;2.35;;;0.60;;
55148;SDS011;49539;48.160;11.530;2024-02-23T12:21:54;0.88;;;0.55;;
55148;SDS011;49539;48.160;11.530;2024-02-23T12:24:25;1.38;;;0.60;;
55148;SDS011;49539;48.160;11.530;2024-02-23T12:27:00;0.40;;;0.40;;
55148;SDS011;49539;48.160;11.530;2024-02-23T12:29:27;0.43;;;0.43;;
55148;SDS011;49539;48.160;11.530;2024-02-23T12:32:07;0.65;;;0.40;;
55148;SDS011;49539;48.160;11.530;2024-02-23T12:34:33;1.05;;;0.75;;
55148;SDS011;49539;48.160;11.530;2024-02-23T12:37:04;1.70;;;0.65;;
55148;SDS011;49539;48.160;11.530;2024-02-23T12:39:30;4.28;;;0.82;;
55148;SDS011;49539;48.160;11.530;2024-02-23T12:41:58;1.88;;;0.70;;
55148;SDS011;49539;48.160;11.530;2024-02-23T12:44:24;1.50;;;0.75;;
55148;SDS011;49539;48.160;11.530;2024-02-23T12:47:00;2.17;;;0.57;;
55148;SDS011;49539;48.160;11.530;2024-02-23T12:49:28;3.03;;;0.77;;
55148;SDS011;49539;48.160;11.530;2024-02-23T12:52:00;0.73;;;0.50;;
55148;SDS011;49539;48.160;11.530;2024-02-23T12:54:26;0.40;;;0.40;;
55148;SDS011;49539;48.160;11.530;2024-02-23T12:56:56;0.47;;;0.40;;
55148;SDS011;49539;48.160;11.530;2024-02-23T12:59:33;1.65;;;0.57;;
55148;SDS011;49539;48.160;11.530;2024-02-23T13:01:59;1.52;;;0.40;;
55148;SDS011;49539;48.160;11.530;2024-02-23T13:04:24;1.25;;;0.57;;
55148;SDS011;49539;48.160;11.530;2024-02-23T13:06:49;0.45;;;0.45;;
55148;SDS011;49539;48.160;11.530;2024-02-23T13:09:15;1.05;;;0.50;;
55148;SDS011;49539;48.160;11.530;2024-02-23T13:11:40;0.55;;;0.50;;
55148;SDS011;49539;48.160;11.530;2024-02-23T13:14:06;1.23;;;0.40;;
55148;SDS011;49539;48.160;11.530;2024-02-23T13:16:31;0.40;;;0.40;;
55148;SDS011;49539;48.160;11.530;2024-02-23T13:18:58;0.73;;;0.43;;
55148;SDS011;49539;48.160;11.530;2024-02-23T13:21:24;1.30;;;0.40;;
55148;SDS011;49539;48.160;11.530;2024-02-23T13:23:49;1.05;;;0.47;;
55148;SDS011;49539;48.160;11.530;2024-02-23T13:26:14;0.55;;;0.40;;
55148;SDS011;49539;48.160;11.530;2024-02-23T13:28:41;0.68;;;0.40;;
55148;SDS011;49539;48.160;11.530;2024-02-23T13:31:08;1.17;;;0.45;;
55148;SDS011;49539;48.160;11.530;2024-02-23T13:33:33;0.82;;;0.50;;
55148;SDS011;49539;48.160;11.530;2024-02-23T13:35:59;0.52;;;0.50;;
55148;SDS011;49539;48.160;11.530;2024-02-23T13:38:25;4.60;;;0.50;;
55148;SDS011;49539;48.160;11.530;2024-02-23T13:40:50;2.05;;;0.50;;
55148;SDS011;49539;48.160;11.530;2024-02-23T13:43:15;1.23;;;0.60;;
55148;SDS011;49539;48.160;11.530;2024-02-23T13:45:53;0.57;;;0.35;;
55148;SDS011;49539;48.160;11.530;2024-02-23T13:48:40;2.40;;;0.30;;
55148;SDS011;49539;48.160;11.530;2024-02-23T13:51:05;0.90;;;0.43;;
55148;SDS011;49539;48.160;11.530;2024-02-23T13:53:31;0.75;;;0.32;;
55148;SDS011;49539;48.160;11.530;2024-02-23T13:56:07;1.45;;;0.60;;
55148;SDS011;49539;48.160;11.530;2024-02-23T13:58:37;0.30;;;0.30;;
55148;SDS011;49539;48.160;11.530;2024-02-23T14:01:02;0.38;;;0.30;;
55148;SDS011;49539;48.160;11.530;2024-02-23T14:03:28;1.90;;;0.40;;
55148;SDS011;49539;48.160;11.530;2024-02-23T14:05:59;2.50;;;0.75;;
55148;SDS011;49539;48.160;11.530;2024-02-23T14:08:51;0.90;;;0.50;;
55148;SDS011;49539;48.160;11.530;2024-02-23T14:11:49;1.00;;;0.30;;
55148;SDS011;49539;48.160;11.530;2024-02-23T14:14:43;0.73;;;0.52;;
55148;SDS011;49539;48.160;11.530;2024-02-23T14:17:22;0.57;;;0.38;;
55148;SDS011;49539;48.160;11.530;2024-02-23T14:19:53;0.22;;;0.22;;
55148;SDS011;49539;48.160;11.530;2024-02-23T14:22:21;0.68;;;0.30;;
55148;SDS011;49539;48.160;11.530;2024-02-23T14:24:51;1.25;;;0.60;;
55148;SDS011;49539;48.160;11.530;2024-02-23T14:27:42;0.98;;;0.40;;
55148;SDS011;49539;48.160;11.530;2024-02-23T14:30:08;1.30;;;0.40;;
55148;SDS011;49539;48.160;11.530;2024-02-23T14:32:33;1.02;;;0.45;;
55148;SDS011;49539;48.160;11.530;2024-02-23T14:35:08;1.60;;;0.60;;